Marine Corps Air Station New River

Airport
ICAO code: 
KNCA
Summary
ICAO Region: 
NAM
Territory: 
Location: 
Jacksonville, North Carolina,,
Coordinates: 
Aerial View: 
34° 42' 38.001" N, 77° 26' 20.986" W
Metar
Observation
KNCA 040707Z AUTO 00000KT 3SM BR CLR 08/08 A3006 RMK AO2 T00830083
Station
Jacksonville, New River, Marine Corps Air Station
Date/Time
2021-12-04 07:07:00
Wind direction
Wind speed
00 kts
Lowest cloud amount
n/a
Temperature
8.3°C
Dew point
8.3°C
Humidity
100%
Weather condition
mist

Description

Marine Corps Air Station New River is a United States Marine Corps helicopter and tilt-rotor base located 3 km south of the central business district of Jacksonville, North Carolina.

Climatology

Humid “subtropical” climate (Köppen climate classification Cfa) - characterized by hot, humid summers and cool winters. Significant amounts of precipitation occur in all seasons in most areas. Winter rainfall (and sometimes snowfall) is associated with large storms that the westerlies steer from west to east. Most summer rainfall occurs during thunderstorms and occasional tropical storms (hurricanes).

Runways

Designator Length Width Surface Rops
1/19 1460 46 ASP Yes/Yes
5/23 1559 46 ASP Yes/Yes
Airport map: 
Aerial View: 

SKYbrary Partners:

Safety knowledge contributed by: